Flight Track Log - Related Links

Times and Time Zones

All times are in EDT time to prevent confusion due to time zone crossing. See the CPA888 flight status page for this flight to view local times or setup timezone preferences in your user account.

Time Position Orientation Groundspeed Altitude Reporting Facility
EDT Latitude Longitude Course Direction KTS MPH feet Rate Location/Type
Wed 01:29:13 PM 22.3268 113.9927 71° East 234 269 3,200  Level FlightAware ADS-B
Wed 01:29:29 PM 22.3319 114.0085 93° East 242 278 4,500 2,066 Climbing FlightAware ADS-B
Wed 01:30:14 PM 22.3305 114.0638 123° Southeast 248 285 5,300 1,320 Climbing FlightAware ADS-B
Wed 01:30:19 PM 22.3273 114.0684 132° Southeast 249 287 5,600 1,690 Climbing FlightAware ADS-B
Wed 01:31:25 PM 22.2354 114.0856 181° South 300 345 7,300 1,361 Climbing FlightAware ADS-B
Wed 01:31:56 PM 22.1883 114.0862 179° South 323 372 7,800 1,000 Climbing FlightAware ADS-B
Wed 01:32:01 PM 22.1826 114.0874 171° South 329 379 7,900 1,034 Climbing FlightAware ADS-B
Wed 01:32:25 PM 22.1503 114.1092 132° Southeast 349 402 8,300 1,000 Climbing FlightAware ADS-B
Wed 01:32:31 PM 22.1443 114.1185 124° Southeast 353 406 8,400 1,355 Climbing FlightAware ADS-B
Wed 01:32:56 PM 22.1236 114.1606 116° Southeast 370 426 9,000 1,778 Climbing FlightAware ADS-B
Wed 01:33:25 PM 22.1016 114.2088 116° Southeast 377 434 10,000 2,066 Climbing FlightAware ADS-B
Wed 01:33:57 PM 22.0767 114.2629 116° Southeast 383 441 11,100 1,592 Climbing FlightAware ADS-B
Wed 01:34:14 PM 22.0723 114.2721 117° Southeast 385 443 11,300 2,143 Climbing FlightAware ADS-B
Wed 01:34:25 PM 22.0540 114.3110 117° Southeast 388 447 12,100 2,100 Climbing FlightAware ADS-B
Wed 01:34:54 PM 22.0399 114.3404 117° Southeast 393 452 12,700 1,742 Climbing FlightAware ADS-B
Wed 01:34:56 PM 22.0285 114.3650 114° Southeast 395 455 13,000 2,364 Climbing FlightAware ADS-B
Wed 01:35:27 PM 22.0152 114.4252 95° East 400 460 14,000 1,421 Climbing FlightAware ADS-B
Wed 01:35:34 PM 22.0156 114.4193 97° East 401 461 13,900 1,862 Descending FlightAware ADS-B
Wed 01:35:56 PM 22.0145 114.4830 90° East 404 465 14,900 2,151 Climbing FlightAware ADS-B
Wed 01:36:27 PM 22.0145 114.5447 89° East 407 468 15,800 1,700 Climbing FlightAware ADS-B
Wed 01:36:56 PM 22.0146 114.6054 90° East 412 474 16,600 1,474 Climbing FlightAware ADS-B
Wed 01:37:24 PM 22.0145 114.6558 90° East 418 481 17,200 1,429 Climbing FlightAware ADS-B
Wed 01:37:38 PM 22.0145 114.6884 90° East 422 486 17,600 1,348 Climbing FlightAware ADS-B
Wed 01:38:53 PM 22.0144 114.8293 90° East 436 502 19,200 1,409 Climbing FlightAware ADS-B
Wed 01:39:33 PM 22.0143 114.8920 90° East 440 506 20,300 1,425 Climbing FlightAware ADS-B
Wed 01:40:13 PM 22.0142 114.9802 90° East 447 514 21,100 1,308 Climbing FlightAware ADS-B
Wed 01:40:51 PM 22.0139 115.0880 90° East 452 520 22,000 1,275 Climbing FlightAware ADS-B
Wed 01:41:33 PM 22.0137 115.1843 90° East 461 531 22,800 1,037 Climbing FlightAware ADS-B
Wed 01:42:12 PM 22.0134 115.2762 90° East 471 542 23,400 889 Climbing FlightAware ADS-B
Wed 01:42:54 PM 22.0130 115.3738 90° East 480 552 24,000 987 Climbing FlightAware ADS-B
Wed 01:43:31 PM 22.0127 115.4569 90° East 486 559 24,700 27 Climbing FlightAware ADS-B
Wed 01:46:00 PM 22.3034 115.6684 34° Northeast  Level Estimated
Wed 01:47:00 PM 22.4203 115.7539 34° Northeast  Level Estimated
Wed 01:48:00 PM 22.5372 115.8394 34° Northeast  Level Estimated
Wed 01:49:00 PM 22.6541 115.9251 34° Northeast  Level Estimated
Wed 01:50:00 PM 22.7709 116.0110 34° Northeast  Level Estimated
Wed 01:51:00 PM 22.8876 116.0969 34° Northeast  Level Estimated
Wed 01:52:00 PM 23.0044 116.1831 34° Northeast  Level Estimated
Wed 01:53:00 PM 23.1210 116.2694 34° Northeast  Level Estimated
Wed 01:54:00 PM 23.2377 116.3558 34° Northeast  Level Estimated
Wed 01:55:00 PM 23.3542 116.4424 34° Northeast  Level Estimated
Wed 01:56:00 PM 23.4708 116.5292 34° Northeast  Level Estimated
Wed 01:57:00 PM 23.5872 116.6161 34° Northeast  Level Estimated
Wed 01:58:00 PM 23.7037 116.7031 34° Northeast  Level Estimated
Wed 01:59:00 PM 23.8201 116.7903 34° Northeast  Level Estimated
Wed 02:00:00 PM 23.9364 116.8777 34° Northeast  Level Estimated
Wed 02:01:00 PM 24.0527 116.9652 34° Northeast  Level Estimated
Wed 02:02:00 PM 24.1689 117.0529 35° Northeast  Level Estimated
Wed 02:03:00 PM 24.2851 117.1407 35° Northeast  Level Estimated
Wed 02:04:00 PM 24.4013 117.2287 35° Northeast  Level Estimated
Wed 02:05:00 PM 24.5173 117.3169 35° Northeast  Level Estimated
Wed 02:06:00 PM 24.6334 117.4052 35° Northeast  Level Estimated
Wed 02:07:00 PM 24.7494 117.4937 35° Northeast  Level Estimated
Wed 02:08:00 PM 24.8653 117.5824 35° Northeast  Level Estimated
Wed 02:09:00 PM 24.9732 117.6651 35° Northeast  Level Estimated
Wed 02:10:00 PM 25.0811 117.7479 35° Northeast  Level Estimated
Wed 02:11:00 PM 25.1889 117.8309 35° Northeast  Level Estimated
Wed 02:12:00 PM 25.2967 117.9141 35° Northeast  Level Estimated
Wed 02:13:00 PM 25.4044 117.9974 35° Northeast  Level Estimated
Wed 02:14:00 PM 25.5121 118.0808 35° Northeast  Level Estimated
Wed 02:15:00 PM 25.6197 118.1644 35° Northeast  Level Estimated
Wed 02:16:00 PM 25.7273 118.2482 35° Northeast  Level Estimated
Wed 02:17:00 PM 25.8349 118.3321 35° Northeast  Level Estimated
Wed 02:18:00 PM 25.9424 118.4161 35° Northeast  Level Estimated
Wed 02:19:00 PM 26.0498 118.5003 35° Northeast  Level Estimated
Wed 02:20:00 PM 26.1572 118.5847 35° Northeast  Level Estimated
Wed 02:21:00 PM 26.2645 118.6692 35° Northeast  Level Estimated
Wed 02:22:00 PM 26.3718 118.7539 35° Northeast  Level Estimated
Wed 02:23:00 PM 26.4791 118.8387 35° Northeast  Level Estimated
Wed 02:24:00 PM 26.5863 118.9237 35° Northeast  Level Estimated
Wed 02:25:00 PM 26.6934 119.0088 35° Northeast  Level Estimated
Wed 02:26:00 PM 26.8005 119.0941 35° Northeast  Level Estimated
Wed 02:27:00 PM 26.9076 119.1796 35° Northeast  Level Estimated
Wed 02:28:00 PM 27.0145 119.2652 35° Northeast  Level Estimated
Wed 02:29:00 PM 27.1215 119.3510 36° Northeast  Level Estimated
Wed 02:30:00 PM 27.2284 119.4370 36° Northeast  Level Estimated
Wed 02:31:00 PM 27.3352 119.5231 36° Northeast  Level Estimated
Wed 02:32:00 PM 27.4420 119.6094 36° Northeast  Level Estimated
Wed 02:33:00 PM 27.5487 119.6958 36° Northeast  Level Estimated
Wed 02:34:00 PM 27.6554 119.7825 36° Northeast  Level Estimated
Wed 02:35:00 PM 27.7620 119.8693 36° Northeast  Level Estimated
Wed 02:36:00 PM 27.8686 119.9562 36° Northeast  Level Estimated
Wed 02:37:00 PM 27.9751 120.0434 36° Northeast  Level Estimated
Wed 02:38:00 PM 28.0816 120.1307 36° Northeast  Level Estimated
Wed 02:39:00 PM 28.1880 120.2181 36° Northeast  Level Estimated
Wed 02:40:00 PM 28.2943 120.3058 36° Northeast  Level Estimated
Wed 02:41:00 PM 28.4006 120.3936 36° Northeast  Level Estimated
Wed 02:42:00 PM 28.5068 120.4816 36° Northeast  Level Estimated
Wed 02:43:00 PM 28.6130 120.5698 36° Northeast  Level Estimated
Wed 02:44:00 PM 28.7191 120.6582 36° Northeast  Level Estimated
Wed 02:45:00 PM 28.8252 120.7467 36° Northeast  Level Estimated
Wed 02:46:00 PM 28.9312 120.8354 36° Northeast  Level Estimated
Wed 02:47:00 PM 29.0371 120.9243 36° Northeast  Level Estimated
Wed 02:48:00 PM 29.1430 121.0134 36° Northeast  Level Estimated
Wed 02:49:00 PM 29.2488 121.1027 36° Northeast  Level Estimated
Wed 02:50:00 PM 29.3546 121.1922 36° Northeast  Level Estimated
Wed 02:51:00 PM 29.4603 121.2818 36° Northeast  Level Estimated
Wed 02:52:00 PM 29.5660 121.3716 36° Northeast  Level Estimated
Wed 02:53:00 PM 29.6716 121.4616 37° Northeast  Level Estimated
Wed 02:54:00 PM 29.7771 121.5518 37° Northeast  Level Estimated
Wed 02:55:00 PM 29.8826 121.6422 37° Northeast  Level Estimated
Wed 02:56:00 PM 29.9880 121.7328 37° Northeast  Level Estimated
Wed 02:57:00 PM 30.0933 121.8236 37° Northeast  Level Estimated
Wed 02:58:00 PM 30.1986 121.9146 37° Northeast  Level Estimated
Wed 02:59:00 PM 30.3038 122.0057 37° Northeast  Level Estimated
Wed 03:00:00 PM 30.4090 122.0971 37° Northeast  Level Estimated
Wed 03:01:00 PM 30.5140 122.1887 37° Northeast  Level Estimated
Wed 03:02:00 PM 30.6191 122.2804 37° Northeast  Level Estimated
Wed 03:03:00 PM 30.7240 122.3724 37° Northeast  Level Estimated
Wed 03:04:00 PM 30.8289 122.4645 37° Northeast  Level Estimated
Wed 03:05:00 PM 30.9338 122.5569 37° Northeast  Level Estimated
Wed 03:06:00 PM 31.0385 122.6495 37° Northeast  Level Estimated
Wed 03:07:00 PM 31.1432 122.7422 37° Northeast  Level Estimated
Wed 03:08:00 PM 31.2479 122.8352 37° Northeast  Level Estimated
Wed 03:09:00 PM 31.3524 122.9284 37° Northeast  Level Estimated
Wed 03:10:00 PM 31.4569 123.0218 37° Northeast  Level Estimated
Wed 03:11:00 PM 31.5613 123.1153 37° Northeast  Level Estimated
Wed 03:12:00 PM 31.6657 123.2092 37° Northeast  Level Estimated
Wed 03:13:00 PM 31.7700 123.3032 37° Northeast  Level Estimated
Wed 03:14:00 PM 31.8742 123.3974 38° Northeast  Level Estimated
Wed 03:15:00 PM 31.9784 123.4918 38° Northeast  Level Estimated
Wed 03:16:00 PM 32.0825 123.5865 38° Northeast  Level Estimated
Wed 03:17:00 PM 32.1865 123.6814 38° Northeast  Level Estimated
Wed 03:18:00 PM 32.2904 123.7764 38° Northeast  Level Estimated
Wed 03:19:00 PM 32.3943 123.8717 38° Northeast  Level Estimated
Wed 03:20:00 PM 32.4981 123.9673 38° Northeast  Level Estimated
Wed 03:21:00 PM 32.6018 124.0630 38° Northeast  Level Estimated
Wed 03:22:00 PM 32.7055 124.1590 38° Northeast  Level Estimated
Wed 03:23:00 PM 32.8090 124.2552 38° Northeast  Level Estimated
Wed 03:24:00 PM 32.9126 124.3516 38° Northeast  Level Estimated
Wed 03:25:00 PM 33.0160 124.4482 38° Northeast  Level Estimated
Wed 03:26:00 PM 33.1193 124.5451 38° Northeast  Level Estimated
Wed 03:27:00 PM 33.2226 124.6422 38° Northeast  Level Estimated
Wed 03:28:00 PM 33.3258 124.7395 38° Northeast  Level Estimated
Wed 03:29:00 PM 33.4290 124.8371 38° Northeast  Level Estimated
Wed 03:30:00 PM 33.5320 124.9348 38° Northeast  Level Estimated
Wed 03:31:00 PM 33.6350 125.0329 38° Northeast  Level Estimated
Wed 03:32:00 PM 33.7379 125.1311 38° Northeast  Level Estimated
Wed 03:33:00 PM 33.8407 125.2296 38° Northeast  Level Estimated
Wed 03:34:00 PM 33.9435 125.3283 39° Northeast  Level Estimated
Wed 03:35:00 PM 34.0461 125.4273 39° Northeast  Level Estimated
Wed 03:36:00 PM 34.1487 125.5265 39° Northeast  Level Estimated
Wed 03:37:00 PM 34.2512 125.6260 39° Northeast  Level Estimated
Wed 03:38:00 PM 34.3536 125.7256 39° Northeast  Level Estimated
Wed 03:39:00 PM 34.4560 125.8256 39° Northeast  Level Estimated
Wed 03:40:00 PM 34.5582 125.9258 39° Northeast  Level Estimated
Wed 03:41:00 PM 34.6604 126.0262 39° Northeast  Level Estimated
Wed 03:42:00 PM 34.7625 126.1268 39° Northeast  Level Estimated
Wed 03:43:00 PM 34.8645 126.2278 39° Northeast  Level Estimated
Wed 03:44:00 PM 34.9665 126.3289 39° Northeast  Level Estimated
Wed 03:45:00 PM 35.0683 126.4304 39° Northeast  Level Estimated
Wed 03:46:00 PM 35.1701 126.5321 39° Northeast  Level Estimated
Wed 03:47:00 PM 35.2717 126.6340 39° Northeast  Level Estimated
Wed 03:48:00 PM 35.3733 126.7362 39° Northeast  Level Estimated
Wed 03:49:00 PM 35.4748 126.8386 39° Northeast  Level Estimated
Wed 03:50:00 PM 35.5763 126.9413 39° Northeast  Level Estimated
Wed 03:51:00 PM 35.6776 127.0443 40° Northeast  Level Estimated
Wed 03:52:00 PM 35.7788 127.1475 40° Northeast  Level Estimated
Wed 03:53:00 PM 35.8800 127.2510 40° Northeast  Level Estimated
Wed 03:54:00 PM 35.9810 127.3548 40° Northeast  Level Estimated
Wed 03:55:00 PM 36.0820 127.4588 40° Northeast  Level Estimated
Wed 03:56:00 PM 36.1829 127.5631 40° Northeast  Level Estimated
Wed 03:57:00 PM 36.2837 127.6676 40° Northeast  Level Estimated
Wed 03:58:00 PM 36.3844 127.7725 40° Northeast  Level Estimated
Wed 03:59:00 PM 36.4850 127.8775 40° Northeast  Level Estimated
Wed 04:00:00 PM 36.5855 127.9829 40° Northeast  Level Estimated
Wed 04:01:00 PM 36.6860 128.0886 40° Northeast  Level Estimated
Wed 04:02:00 PM 36.7863 128.1945 40° Northeast  Level Estimated
Wed 04:03:00 PM 36.8865 128.3007 40° Northeast  Level Estimated
Wed 04:04:00 PM 36.9867 128.4072 40° Northeast  Level Estimated
Wed 04:05:00 PM 37.0867 128.5139 40° Northeast  Level Estimated
Wed 04:06:00 PM 37.1867 128.6210 40° Northeast  Level Estimated
Wed 04:07:00 PM 37.2865 128.7283 41° Northeast  Level Estimated
Wed 04:08:00 PM 37.3863 128.8359 41° Northeast  Level Estimated
Wed 04:09:00 PM 37.4860 128.9438 41° Northeast  Level Estimated
Wed 04:10:00 PM 37.5855 129.0520 41° Northeast  Level Estimated
Wed 04:11:00 PM 37.6857 129.1612 41° Northeast  Level Estimated
Wed 04:12:00 PM 37.7857 129.2707 41° Northeast  Level Estimated
Wed 04:13:00 PM 37.8856 129.3805 41° Northeast  Level Estimated
Wed 04:14:00 PM 37.9855 129.4906 41° Northeast  Level Estimated
Wed 04:15:00 PM 38.0852 129.6010 41° Northeast  Level Estimated
Wed 04:16:00 PM 38.1848 129.7117 41° Northeast  Level Estimated
Wed 04:17:00 PM 38.2844 129.8227 41° Northeast  Level Estimated
Wed 04:18:00 PM 38.3838 129.9341 41° Northeast  Level Estimated
Wed 04:19:00 PM 38.4831 130.0457 41° Northeast  Level Estimated
Wed 04:20:00 PM 38.5823 130.1576 41° Northeast  Level Estimated
Wed 04:21:00 PM 38.6814 130.2698 41° Northeast  Level Estimated
Wed 04:22:00 PM 38.7804 130.3824 42° Northeast  Level Estimated
Wed 04:23:00 PM 38.8793 130.4952 42° Northeast  Level Estimated
Wed 04:24:00 PM 38.9780 130.6084 42° Northeast  Level Estimated
Wed 04:25:00 PM 39.0767 130.7219 42° Northeast  Level Estimated
Wed 04:26:00 PM 39.1753 130.8357 42° Northeast  Level Estimated
Wed 04:27:00 PM 39.2737 130.9498 42° Northeast  Level Estimated
Wed 04:28:00 PM 39.3720 131.0643 42° Northeast  Level Estimated
Wed 04:29:00 PM 39.4702 131.1790 42° Northeast  Level Estimated
Wed 04:30:00 PM 39.5684 131.2941 42° Northeast  Level Estimated
Wed 04:31:00 PM 39.6664 131.4096 42° Northeast  Level Estimated
Wed 04:32:00 PM 39.7642 131.5253 42° Northeast  Level Estimated
Wed 04:33:00 PM 39.8620 131.6414 42° Northeast  Level Estimated
Wed 04:34:00 PM 39.9596 131.7578 42° Northeast  Level Estimated
Wed 04:35:00 PM 40.0572 131.8745 42° Northeast  Level Estimated
Wed 04:36:00 PM 40.1546 131.9916 43° Northeast  Level Estimated
Wed 04:37:00 PM 40.2519 132.1090 43° Northeast  Level Estimated
Wed 04:38:00 PM 40.3490 132.2268 43° Northeast  Level Estimated
Wed 04:39:00 PM 40.4461 132.3449 43° Northeast  Level Estimated
Wed 04:40:00 PM 40.5430 132.4633 43° Northeast  Level Estimated
Wed 04:41:00 PM 40.6399 132.5821 43° Northeast  Level Estimated
Wed 04:42:00 PM 40.7365 132.7012 43° Northeast  Level Estimated
Wed 04:43:00 PM 40.8331 132.8206 43° Northeast  Level Estimated
Wed 04:44:00 PM 40.9296 132.9405 43° Northeast  Level Estimated
Wed 04:45:00 PM 41.0259 133.0606 43° Northeast  Level Estimated
Wed 04:46:00 PM 41.1221 133.1811 43° Northeast  Level Estimated
Wed 04:47:00 PM 41.2181 133.3020 43° Northeast  Level Estimated
Wed 04:48:00 PM 41.3141 133.4232 43° Northeast  Level Estimated
Wed 04:49:00 PM 41.4099 133.5448 44° Northeast  Level Estimated
Wed 04:50:00 PM 41.5056 133.6667 44° Northeast  Level Estimated
Wed 04:51:00 PM 41.6011 133.7890 44° Northeast  Level Estimated
Wed 04:52:00 PM 41.6966 133.9117 44° Northeast  Level Estimated
Wed 04:53:00 PM 41.7919 134.0347 44° Northeast  Level Estimated
Wed 04:54:00 PM 41.8870 134.1581 44° Northeast  Level Estimated
Wed 04:55:00 PM 41.9821 134.2819 44° Northeast  Level Estimated
Wed 04:56:00 PM 42.0770 134.4060 44° Northeast  Level Estimated
Wed 04:57:00 PM 42.1717 134.5305 44° Northeast  Level Estimated
Wed 04:58:00 PM 42.2664 134.6554 44° Northeast  Level Estimated
Wed 04:59:00 PM 42.3609 134.7807 44° Northeast  Level Estimated
Wed 05:00:00 PM 42.4552 134.9063 44° Northeast  Level Estimated
Wed 05:01:00 PM 42.5494 135.0323 45° Northeast  Level Estimated
Wed 05:02:00 PM 42.6435 135.1587 45° Northeast  Level Estimated
Wed 05:03:00 PM 42.7375 135.2854 45° Northeast  Level Estimated
Wed 05:04:00 PM 42.8313 135.4126 45° Northeast  Level Estimated
Wed 05:05:00 PM 42.9249 135.5401 45° Northeast  Level Estimated
Wed 05:06:00 PM 43.0184 135.6681 45° Northeast  Level Estimated
Wed 05:07:00 PM 43.1118 135.7964 45° Northeast  Level Estimated
Wed 05:08:00 PM 43.2051 135.9251 45° Northeast  Level Estimated
Wed 05:09:00 PM 43.2981 136.0542 45° Northeast  Level Estimated
Wed 05:10:00 PM 43.3911 136.1837 45° Northeast  Level Estimated
Wed 05:11:00 PM 43.4839 136.3136 45° Northeast  Level Estimated
Wed 05:12:00 PM 43.5765 136.4439 46° Northeast  Level Estimated
Wed 05:13:00 PM 43.6690 136.5746 46° Northeast  Level Estimated
Wed 05:14:00 PM 43.7614 136.7057 46° Northeast  Level Estimated
Wed 05:15:00 PM 43.8536 136.8372 46° Northeast  Level Estimated
Wed 05:16:00 PM 43.9456 136.9691 46° Northeast  Level Estimated
Wed 05:17:00 PM 44.0375 137.1014 46° Northeast  Level Estimated
Wed 05:18:00 PM 44.1292 137.2342 46° Northeast  Level Estimated
Wed 05:19:00 PM 44.2208 137.3673 46° Northeast  Level Estimated
Wed 05:20:00 PM 44.3123 137.5009 46° Northeast  Level Estimated
Wed 05:21:00 PM 44.4035 137.6349 46° Northeast  Level Estimated
Wed 05:22:00 PM 44.4947 137.7693 46° Northeast  Level Estimated
Wed 05:23:00 PM 44.5856 137.9041 47° Northeast  Level Estimated
Wed 05:24:00 PM 44.6764 138.0393 47° Northeast  Level Estimated
Wed 05:25:00 PM 44.7671 138.1750 47° Northeast  Level Estimated
Wed 05:26:00 PM 44.8576 138.3111 47° Northeast  Level Estimated
Wed 05:27:00 PM 44.9479 138.4476 47° Northeast  Level Estimated
Wed 05:28:00 PM 45.0380 138.5845 47° Northeast  Level Estimated
Wed 05:29:00 PM 45.1280 138.7219 47° Northeast  Level Estimated
Wed 05:30:00 PM 45.2179 138.8597 47° Northeast  Level Estimated
Wed 05:31:00 PM 45.3075 138.9980 47° Northeast  Level Estimated
Wed 05:32:00 PM 45.3970 139.1366 47° Northeast  Level Estimated
Wed 05:33:00 PM 45.4863 139.2758 47° Northeast  Level Estimated
Wed 05:34:00 PM 45.5755 139.4153 48° Northeast  Level Estimated
Wed 05:35:00 PM 45.6645 139.5553 48° Northeast  Level Estimated
Wed 05:36:00 PM 45.7533 139.6958 48° Northeast  Level Estimated
Wed 05:37:00 PM 45.8419 139.8367 48° Northeast  Level Estimated
Wed 05:38:00 PM 45.9304 139.9780 48° Northeast  Level Estimated
Wed 05:39:00 PM 46.0187 140.1198 48° Northeast  Level Estimated
Wed 05:40:00 PM 46.1068 140.2621 48° Northeast  Level Estimated
Wed 05:41:00 PM 46.1948 140.4048 48° Northeast  Level Estimated
Wed 05:42:00 PM 46.2825 140.5480 48° Northeast  Level Estimated
Wed 05:43:00 PM 46.3701 140.6916 49° Northeast  Level Estimated
Wed 05:44:00 PM 46.4575 140.8357 49° Northeast  Level Estimated
Wed 05:45:00 PM 46.5447 140.9802 49° Northeast  Level Estimated
Wed 05:46:00 PM 46.6318 141.1252 49° Northeast  Level Estimated
Wed 05:47:00 PM 46.7186 141.2707 49° Northeast  Level Estimated
Wed 05:48:00 PM 46.8053 141.4167 49° Northeast  Level Estimated
Wed 05:49:00 PM 46.8918 141.5631 49° Northeast  Level Estimated
Wed 05:50:00 PM 46.9781 141.7100 49° Northeast  Level Estimated
Wed 05:51:00 PM 47.0642 141.8574 49° Northeast  Level Estimated
Wed 05:52:00 PM 47.1501 142.0052 49° Northeast  Level Estimated
Wed 05:53:00 PM 47.2358 142.1535 50° Northeast  Level Estimated
Wed 05:54:00 PM 47.3214 142.3023 50° Northeast  Level Estimated
Wed 05:55:00 PM 47.4067 142.4516 50° Northeast  Level Estimated
Wed 05:56:00 PM 47.4918 142.6014 50° Northeast  Level Estimated
Wed 05:57:00 PM 47.5768 142.7516 50° Northeast  Level Estimated
Wed 05:58:00 PM 47.6615 142.9024 50° Northeast  Level Estimated
Wed 05:59:00 PM 47.7461 143.0536 50° Northeast  Level Estimated
Wed 06:00:00 PM 47.8305 143.2053 50° Northeast  Level Estimated
Wed 06:01:00 PM 47.9146 143.3575 50° Northeast  Level Estimated
Wed 06:02:00 PM 47.9986 143.5103 51° Northeast  Level Estimated
Wed 06:03:00 PM 48.0823 143.6635 51° Northeast  Level Estimated
Wed 06:04:00 PM 48.1659 143.8172 51° Northeast  Level Estimated
Wed 06:05:00 PM 48.2492 143.9714 51° Northeast  Level Estimated
Wed 06:06:00 PM 48.3324 144.1261 51° Northeast  Level Estimated
Wed 06:07:00 PM 48.4153 144.2813 51° Northeast  Level Estimated
Wed 06:08:00 PM 48.4980 144.4370 51° Northeast  Level Estimated
Wed 06:09:00 PM 48.5805 144.5933 51° Northeast  Level Estimated
Wed 06:10:00 PM 48.6628 144.7500 51° Northeast  Level Estimated
Wed 06:11:00 PM 48.7449 144.9073 52° Northeast  Level Estimated
Wed 06:12:00 PM 48.8267 145.0650 52° Northeast  Level Estimated
Wed 06:13:00 PM 48.9141 145.2343 52° Northeast  Level Estimated
Wed 06:14:00 PM 49.0011 145.4042 52° Northeast  Level Estimated
Wed 06:15:00 PM 49.0879 145.5747 52° Northeast  Level Estimated
Wed 06:16:00 PM 49.1745 145.7458 52° Northeast  Level Estimated
Wed 06:17:00 PM 49.2608 145.9174 52° Northeast  Level Estimated
Wed 06:18:00 PM 49.3469 146.0897 52° Northeast  Level Estimated
Wed 06:19:00 PM 49.4327 146.2626 53° Northeast  Level Estimated
Wed 06:20:00 PM 49.5182 146.4361 53° Northeast  Level Estimated
Wed 06:21:00 PM 49.6035 146.6102 53° Northeast  Level Estimated
Wed 06:22:00 PM 49.6885 146.7849 53° Northeast  Level Estimated
Wed 06:23:00 PM 49.7732 146.9602 53° Northeast  Level Estimated
Wed 06:24:00 PM 49.8577 147.1361 53° Northeast  Level Estimated
Wed 06:25:00 PM 49.9419 147.3126 53° Northeast  Level Estimated
Wed 06:26:00 PM 50.0259 147.4898 54° Northeast  Level Estimated
Wed 06:27:00 PM 50.1096 147.6676 54° Northeast  Level Estimated
Wed 06:28:00 PM 50.1930 147.8459 54° Northeast  Level Estimated
Wed 06:29:00 PM 50.2761 148.0250 54° Northeast  Level Estimated
Wed 06:30:00 PM 50.3590 148.2046 54° Northeast  Level Estimated
Wed 06:31:00 PM 50.4415 148.3849 54° Northeast  Level Estimated
Wed 06:32:00 PM 50.5238 148.5658 54° Northeast  Level Estimated
Wed 06:33:00 PM 50.6059 148.7473 55° Northeast  Level Estimated
Wed 06:34:00 PM 50.6876 148.9295 55° Northeast  Level Estimated
Wed 06:35:00 PM 50.7690 149.1123 55° Northeast  Level Estimated
Wed 06:36:00 PM 50.8502 149.2957 55° Northeast  Level Estimated
Wed 06:37:00 PM 50.9311 149.4798 55° Northeast  Level Estimated
Wed 06:38:00 PM 51.0117 149.6645 55° Northeast  Level Estimated
Wed 06:39:00 PM 51.0919 149.8499 55° Northeast  Level Estimated
Wed 06:40:00 PM 51.1720 150.0358 56° Northeast  Level Estimated
Wed 06:41:00 PM 51.2517 150.2225 56° Northeast  Level Estimated
Wed 06:42:00 PM 51.3311 150.4098 56° Northeast  Level Estimated
Wed 06:43:00 PM 51.4102 150.5977 56° Northeast  Level Estimated
Wed 06:44:00 PM 51.4890 150.7863 56° Northeast  Level Estimated
Wed 06:45:00 PM 51.5675 150.9756 56° Northeast  Level Estimated
Wed 06:46:00 PM 51.6457 151.1655 56° Northeast  Level Estimated
Wed 06:47:00 PM 51.7235 151.3560 57° Northeast  Level Estimated
Wed 06:48:00 PM 51.8011 151.5472 57° Northeast  Level Estimated
Wed 06:49:00 PM 51.8784 151.7391 57° Northeast  Level Estimated
Wed 06:50:00 PM 51.9553 151.9316 57° Northeast  Level Estimated
Wed 06:51:00 PM 52.0320 152.1248 57° Northeast  Level Estimated
Wed 06:52:00 PM 52.1083 152.3186 57° Northeast  Level Estimated
Wed 06:53:00 PM 52.1843 152.5131 57° Northeast  Level Estimated
Wed 06:54:00 PM 52.2600 152.7083 58° Northeast  Level Estimated
Wed 06:55:00 PM 52.3353 152.9041 58° Northeast  Level Estimated
Wed 06:56:00 PM 52.4104 153.1007 58° Northeast  Level Estimated
Wed 06:57:00 PM 52.4851 153.2978 58° Northeast  Level Estimated
Wed 06:58:00 PM 52.5595 153.4957 58° Northeast  Level Estimated
Wed 06:59:00 PM 52.6335 153.6942 58° Northeast  Level Estimated
Wed 07:00:00 PM 52.7072 153.8934 59° Northeast  Level Estimated
Wed 07:01:00 PM 52.7806 154.0932 59° Northeast  Level Estimated
Wed 07:02:00 PM 52.8536 154.2938 59° Northeast  Level Estimated
Wed 07:03:00 PM 52.9263 154.4950 59° Northeast  Level Estimated
Wed 07:04:00 PM 52.9987 154.6969 59° Northeast  Level Estimated
Wed 07:05:00 PM 53.0707 154.8994 59° Northeast  Level Estimated
Wed 07:06:00 PM 53.1424 155.1027 59° Northeast  Level Estimated
Wed 07:07:00 PM 53.2137 155.3066 60° Northeast  Level Estimated
Wed 07:08:00 PM 53.2847 155.5112 60° Northeast  Level Estimated
Wed 07:09:00 PM 53.3553 155.7164 60° Northeast  Level Estimated
Wed 07:10:00 PM 53.4256 155.9224 60° Northeast  Level Estimated
Wed 07:11:00 PM 53.4955 156.1290 60° Northeast  Level Estimated
Wed 07:12:00 PM 53.5651 156.3363 60° Northeast  Level Estimated
Wed 07:13:00 PM 53.6343 156.5443 61° Northeast  Level Estimated
Wed 07:14:00 PM 53.7031 156.7530 61° Northeast  Level Estimated
Wed 07:15:00 PM 53.7716 156.9624 61° Northeast  Level Estimated
Wed 07:16:00 PM 53.8397 157.1724 61° Northeast  Level Estimated
Wed 07:17:00 PM 53.9075 157.3831 61° Northeast  Level Estimated
Wed 07:18:00 PM 53.9748 157.5945 61° Northeast  Level Estimated
Wed 07:19:00 PM 54.0418 157.8066 62° Northeast  Level Estimated
Wed 07:20:00 PM 54.1085 158.0194 62° Northeast  Level Estimated
Wed 07:21:00 PM 54.1747 158.2328 62° Northeast  Level Estimated
Wed 07:21:17 PM 44.4167 166.5167 76° East 539 620 33,000  Level Oakland Oceanic (ODAPS)
Wed 07:35:09 PM 44.9000 169.3333 78° East 543 625 33,000 117 Level Oakland Oceanic (ODAPS)
Wed 07:38:25 PM 45.0000 170.0000 63° Northeast 526 605 35,000 144 Climbing Oakland Oceanic (ODAPS)
Wed 07:49:02 PM 45.7000 172.0000 64° Northeast 520 598 35,000  Level Oakland Oceanic (ODAPS)
Wed 08:02:54 PM 46.5500 174.6500 66° East 517 595 35,000  Level Oakland Oceanic (ODAPS)
Wed 08:16:47 PM 47.3167 177.3500 68° East 516 594 35,000  Level Oakland Oceanic (ODAPS)
Wed 08:30:32 PM 48.0000 180.0000 69° East 489 563 35,000  Level Oakland Oceanic (ODAPS)
Wed 08:30:52 PM 48.0000 180.0000 69° East 485 558 35,000  Level Oakland Oceanic (ODAPS)
Wed 08:44:31 PM 48.6333 -177.3333 71° East 491 565 35,000  Level Oakland Oceanic (ODAPS)
Wed 08:58:31 PM 49.2000 -174.6000 73° East 487 560 35,000  Level Oakland Oceanic (ODAPS)
Wed 09:12:16 PM 49.7000 -171.8500 75° East 480 552 35,000  Level Oakland Oceanic (ODAPS)
Wed 09:21:31 PM 50.0000 -170.0000 86° East 482 555 35,000  Level Oakland Oceanic (ODAPS)
Wed 09:26:08 PM 50.0333 -169.0500 87° East 485 558 35,000  Level Oakland Oceanic (ODAPS)
Wed 09:39:59 PM 50.1000 -166.1667 89° East 485 558 35,000  Level Oakland Oceanic (ODAPS)
Wed 09:53:52 PM 50.1000 -163.3000 91° East 485 558 35,000  Level Oakland Oceanic (ODAPS)
Wed 10:07:44 PM 50.0167 -160.4167 93° East 474 545 35,000  Level Oakland Oceanic (ODAPS)
Wed 10:09:47 PM 50.0000 -160.0000 95° East 494 568 35,000  Level Oakland Oceanic (ODAPS)
Wed 10:21:36 PM 49.8333 -157.5833 97° East 503 579 35,000  Level Oakland Oceanic (ODAPS)
Wed 10:35:29 PM 49.5833 -154.6667 99° East 505 581 35,000  Level Oakland Oceanic (ODAPS)
Wed 10:49:21 PM 49.2333 -151.7333 101° East 509 586 35,000  Level Oakland Oceanic (ODAPS)
Wed 10:57:34 PM 49.0000 -150.0000 77° East 517 595 35,000  Level Oakland Oceanic (ODAPS)
Wed 11:03:13 PM 49.1667 -148.8167 78° East 518 596 35,000  Level Oakland Oceanic (ODAPS)
Wed 11:17:05 PM 49.5333 -145.8333 81° East 518 596 35,000  Level Oakland Oceanic (ODAPS)
Wed 11:31:17 PM 49.8167 -142.8000 83° East 518 596 35,000  Level Oakland Oceanic (ODAPS)
Wed 11:43:40 PM 50.0000 -140.0000 87° East 515 593 35,000  Level Oakland Oceanic (ODAPS)
Wed 11:44:49 PM 50.0000 -139.7500 88° East 514 592 35,000 265 Level Oakland Oceanic (ODAPS)
Wed 11:51:13 PM 50.0333 -138.3333 89° East 514 592 37,000 144 Climbing Oakland Oceanic (ODAPS)
Wed 11:58:42 PM 50.0500 -136.6833 90° East 518 596 37,000  Level Oakland Oceanic (ODAPS)
Thu 12:11:03 AM 50.0000 -133.9500 90° East 470 541 37,000  Level Vancouver Center
Thu 12:12:00 AM 50.0062 -133.6186 92° East 518 596 37,000  Level FlightAware Transoceanic
Thu 12:12:03 AM 50.0000 -133.7333 90° East 510 587 37,000  Level Vancouver Center
Thu 12:13:00 AM 50.0000 -133.4000 89° East 518 596 37,000  Level FlightAware Transoceanic
Thu 12:13:03 AM 49.9833 -133.5333 97° East 510 587 37,000  Level Vancouver Center
Thu 12:14:00 AM 50.0013 -133.1896 90° East 518 596 37,000  Level FlightAware Transoceanic
Thu 12:14:03 AM 49.9667 -133.2833 96° East 510 587 37,000  Level Vancouver Center
Thu 12:15:00 AM 50.0023 -132.9792 90° East 518 596 37,000  Level FlightAware Transoceanic
Thu 12:15:03 AM 49.9500 -133.1000 98° East 500 575 37,000  Level Vancouver Center
Thu 12:16:00 AM 50.0028 -132.7688 90° East 518 596 37,000  Level FlightAware Transoceanic
Thu 12:16:03 AM 49.9333 -132.8667 96° East 500 575 37,000  Level Vancouver Center
Thu 12:17:05 AM 49.9167 -132.6500 97° East 500 575 37,000  Level Vancouver Center
Thu 12:18:05 AM 49.9000 -132.4500 97° East 500 575 37,000  Level Vancouver Center
Thu 12:19:05 AM 49.8667 -132.2333 103° East 500 575 37,000  Level Vancouver Center
Thu 12:20:05 AM 49.8500 -132.0167 97° East 500 575 37,000  Level Vancouver Center
Thu 12:21:05 AM 49.8333 -131.8000 97° East 500 575 37,000  Level Vancouver Center
Thu 12:22:05 AM 49.8167 -131.6000 97° East 500 575 37,000  Level Vancouver Center
Thu 12:23:05 AM 49.7667 -131.3833 110° East 500 575 37,000  Level Vancouver Center
Thu 12:24:05 AM 49.7500 -131.1667 97° East 500 575 37,000  Level Vancouver Center
Thu 12:25:05 AM 49.7333 -130.9667 97° East 500 575 37,000  Level Vancouver Center
Thu 12:26:05 AM 49.7167 -130.7500 97° East 500 575 37,000  Level Vancouver Center
Thu 12:27:05 AM 49.7000 -130.5333 97° East 500 575 37,000  Level Vancouver Center
Thu 12:28:05 AM 49.6667 -130.3333 104° East 490 564 37,000  Level Vancouver Center
Thu 12:29:05 AM 49.6333 -130.1167 103° East 490 564 37,000  Level Vancouver Center
Thu 12:30:05 AM 49.6167 -129.9167 97° East 490 564 37,000  Level Vancouver Center
Thu 12:31:05 AM 49.5833 -129.7000 103° East 490 564 37,000  Level Vancouver Center
Thu 12:32:05 AM 49.5667 -129.4833 97° East 490 564 37,000  Level Vancouver Center
Thu 12:37:24 AM 49.4432 -128.3967 102° East 490 564 37,000  Level FlightAware ADS-B (CYVR)
Thu 12:37:57 AM 49.4265 -128.2725 102° East 489 563 37,000  Level FlightAware ADS-B (CYVR)
Thu 12:39:40 AM 49.3773 -127.9145 102° East 488 562 37,000  Level FlightAware ADS-B (CYVR)
Thu 12:40:41 AM 49.3486 -127.7090 102° East 487 560 37,000  Level FlightAware ADS-B (CYVR)
Thu 12:41:17 AM 49.3312 -127.5862 102° East 486 559 37,000  Level FlightAware ADS-B (CYVR)
Thu 12:41:49 AM 49.3162 -127.4811 102° East 484 557 37,000  Level FlightAware ADS-B (CYVR)
Thu 12:42:43 AM 49.2900 -127.2986 103° East 486 559 37,000  Level FlightAware ADS-B (CYVR)
Thu 12:43:21 AM 49.2717 -127.1729 103° East 485 558 37,000  Level FlightAware ADS-B (CYVR)
Thu 12:43:54 AM 49.2554 -127.0620 103° East 485 558 37,000  Level FlightAware ADS-B (CYVR)
Thu 12:44:45 AM 49.2307 -126.8946 103° East 485 558 37,000  Level FlightAware ADS-B (CYVR)
Thu 12:45:24 AM 49.2108 -126.7616 103° East 483 556 37,000  Level FlightAware ADS-B (CYVR)
Thu 12:45:59 AM 49.1934 -126.6455 103° East 483 556 37,000  Level FlightAware ADS-B (CYVR)
Thu 12:46:30 AM 49.1780 -126.5436 103° East 482 555 37,000  Level FlightAware ADS-B (CYVR)
Thu 12:47:04 AM 49.1608 -126.4312 103° East 482 555 37,000  Level FlightAware ADS-B (CYVR)
Thu 12:47:34 AM 49.1458 -126.3335 103° East 482 555 37,000  Level FlightAware ADS-B (CYVR)
Thu 12:48:05 AM 49.1294 -126.2278 103° East 483 556 37,000  Level FlightAware ADS-B (CYVR)
Thu 12:48:36 AM 49.1138 -126.1272 103° East 483 556 37,000 -393 Level FlightAware ADS-B (CYVR)
Thu 12:49:06 AM 49.1001 -126.0390 103° East 483 556 36,600 -1,944 Descending FlightAware ADS-B (CYVR)
Thu 12:49:47 AM 49.0770 -125.8925 104° East 485 558 34,700 -3,042 Descending FlightAware ADS-B (KPFC)
Thu 12:50:17 AM 49.0615 -125.7952 104° East 494 568 33,000 -2,958 Descending FlightAware ADS-B (CYVR)
Thu 12:50:58 AM 49.0490 -125.6546 92° East 495 570 31,200 -2,451 Descending FlightAware ADS-B (CYVR)
Thu 12:51:28 AM 49.0499 -125.5458 88° East 491 565 30,100 -2,200 Descending FlightAware ADS-B (CYVR)
Thu 12:51:58 AM 49.0524 -125.4418 88° East 484 557 29,000 -2,164 Descending FlightAware ADS-B (CYVR)
Thu 12:52:29 AM 49.0547 -125.3398 88° East 477 549 27,900 -2,123 Descending FlightAware ADS-B (CYVR)
Thu 12:53:03 AM 49.0570 -125.2328 88° East 469 540 26,700 -2,031 Descending FlightAware ADS-B (CYVR)
Thu 12:53:34 AM 49.0589 -125.1269 89° East 461 531 25,700 -1,846 Descending FlightAware ADS-B (CYVR)
Thu 12:54:08 AM 49.0608 -125.0145 89° East 453 521 24,700 -1,846 Descending FlightAware ADS-B (CYVR)
Thu 12:54:39 AM 49.0622 -124.9187 89° East 445 512 23,700 -1,875 Descending FlightAware ADS-B (CYVR)
Thu 12:55:12 AM 49.0639 -124.8097 89° East 437 503 22,700 -1,810 Descending FlightAware ADS-B (FAKM / KIM)
Thu 12:55:42 AM 49.0652 -124.7175 89° East 432 497 21,800 -1,875 Descending FlightAware ADS-B (FAKM / KIM)
Thu 12:56:16 AM 49.0667 -124.6137 89° East 431 496 20,700 -1,938 Descending FlightAware ADS-B (FAKM / KIM)
Thu 12:56:47 AM 49.0679 -124.5201 89° East 432 497 19,700 -2,032 Descending FlightAware ADS-B (FAKM / KIM)
Thu 12:57:18 AM 49.0691 -124.4239 89° East 432 497 18,600 -2,000 Descending FlightAware ADS-B (FAKM / KIM)
Thu 12:57:50 AM 49.0701 -124.3385 89° East 425 489 17,600 -1,875 Descending FlightAware ADS-B (CYVR)
Thu 12:58:22 AM 49.0712 -124.2407 89° East 418 481 16,600 -1,875 Descending FlightAware ADS-B (CYVR)
Thu 12:58:54 AM 49.0722 -124.1412 89° East 411 473 15,600 -1,859 Descending FlightAware ADS-B (FAKM / KIM)
Thu 12:59:33 AM 49.0732 -124.0367 89° East 402 463 14,400 -1,890 Descending FlightAware ADS-B (CYVR)
Thu 01:00:07 AM 49.0740 -123.9396 89° East 396 456 13,300 -1,909 Descending FlightAware ADS-B (FAKM / KIM)
Thu 01:00:17 AM 49.0742 -123.9062 90° East 395 455 13,000 -1,317 Descending FlightAware ADS-B (FAKM / KIM)
Thu 01:00:48 AM 49.0748 -123.8301 89° East 381 438 12,400 -738 Descending FlightAware ADS-B (CYVR)
Thu 01:01:22 AM 49.0753 -123.7418 90° East 355 409 12,200 -462 Descending FlightAware ADS-B (CYVR)
Thu 01:01:53 AM 49.0757 -123.6655 90° East 334 384 11,900 -689 Descending FlightAware ADS-B (CYVR)
Thu 01:02:23 AM 49.0760 -123.5967 90° East 321 369 11,500 -787 Descending FlightAware ADS-B (CYVR)
Thu 01:02:54 AM 49.0763 -123.5286 90° East 310 357 11,100 -762 Descending FlightAware ADS-B (CYVR)
Thu 01:03:26 AM 49.0766 -123.4606 90° East 306 352 10,700 -1,000 Descending FlightAware ADS-B
Thu 01:04:00 AM 49.0768 -123.3810 90° East 305 351 10,000 -1,102 Descending FlightAware ADS-B (FAKM / KIM)
Thu 01:04:15 AM 49.0769 -123.3546 90° East 301 346 9,800 -1,000 Descending FlightAware ADS-B
Thu 01:04:30 AM 49.0770 -123.3176 90° East 296 341 9,500 -1,000 Descending FlightAware ADS-B (FAKM / KIM)
Thu 01:04:51 AM 49.0771 -123.2824 90° East 294 338 9,200 -789 Descending FlightAware ADS-B (CYVR)
Thu 01:05:08 AM 49.0771 -123.2393 90° East 294 338 9,000 -938 Descending FlightAware ADS-B (FAKM / KIM)
Thu 01:05:23 AM 49.0771 -123.2080 90° East 293 337 8,700 -1,000 Descending FlightAware ADS-B (FAKM / KIM)
Thu 01:05:38 AM 49.0771 -123.1883 90° East 292 336 8,500 -750 Descending FlightAware ADS-B
Thu 01:05:55 AM 49.0772 -123.1460 90° East 290 334 8,300 -960 Descending FlightAware ADS-B (CYVR)
Thu 01:06:03 AM 49.0772 -123.1257 91° East 291 335 8,100 -1,154 Descending FlightAware ADS-B (FAKM / KIM)
Thu 01:06:21 AM 49.0766 -123.0981 92° East 293 337 7,800 -1,273 Descending FlightAware ADS-B
Thu 01:06:36 AM 49.0758 -123.0634 92° East 295 339 7,400 -1,000 Descending FlightAware ADS-B (CYVR)
Thu 01:06:51 AM 49.0751 -123.0326 92° East 288 331 7,300 -387 Descending FlightAware ADS-B (FAKM / KIM)
Thu 01:07:07 AM 49.0744 -123.0008 92° East 278 320 7,200 -529 Descending FlightAware ADS-B (CYVR)
Thu 01:07:25 AM 49.0737 -122.9614 92° East 271 312 7,000 -514 Descending FlightAware ADS-B (FAKM / KIM)
Thu 01:07:42 AM 49.0732 -122.9347 92° East 261 300 6,900 -514 Descending FlightAware ADS-B (CYVR)
Thu 01:08:00 AM 49.0725 -122.8983 92° East 250 288 6,700 -545 Descending FlightAware ADS-B (FAKM / KIM)
Thu 01:08:15 AM 49.0720 -122.8726 92° East 239 275 6,600 -667 Descending FlightAware ADS-B (FAKM / KIM)
Thu 01:08:36 AM 49.0721 -122.8423 85° East 232 267 6,300 -750 Descending FlightAware ADS-B (CYVR)
Thu 01:08:47 AM 49.0760 -122.8251 63° Northeast 230 265 6,200 -857 Descending FlightAware ADS-B (CYVR)
Thu 01:08:57 AM 49.0820 -122.8142 43° Northeast 231 266 6,000 -900 Descending FlightAware ADS-B (CYVR)
Thu 01:09:07 AM 49.0926 -122.8053 20° North 227 261 5,900 -600 Descending FlightAware ADS-B (CYVR)
Thu 01:09:17 AM 49.1025 -122.8016 12° North 225 259 5,800 -1,091 Descending FlightAware ADS-B (CYVR)
Thu 01:09:29 AM 49.1146 -122.8003 358° North 222 255 5,500 -1,500 Descending FlightAware ADS-B (FAKM / KIM)
Thu 01:09:37 AM 49.1231 -122.8039 339° North 218 251 5,300 -1,333 Descending FlightAware ADS-B (CYVR)
Thu 01:09:47 AM 49.1306 -122.8121 318° Northwest 213 245 5,100 -1,548 Descending FlightAware ADS-B (CYVR)
Thu 01:10:08 AM 49.1440 -122.8355 310° West 212 244 4,500 -2,069 Descending FlightAware ADS-B (CYVR)
Thu 01:10:16 AM 49.1415 -122.8308 310° West 212 244 4,100 -1,600 Descending FlightAware ADS-B (FAKM / KIM)
Thu 01:10:38 AM 49.1624 -122.8702 306° West 201 231 3,700 -1,125 Descending FlightAware ADS-B (CYVR)
Thu 01:10:48 AM 49.1666 -122.8809 296° West 192 221 3,500 -1,263 Descending FlightAware ADS-B (CYVR)
Thu 01:10:57 AM 49.1693 -122.8921 286° West 187 215 3,300 -1,200 Descending FlightAware ADS-B (CYVR)
Thu 01:11:18 AM 49.1728 -122.9195 280° West 184 212 2,900 -1,143 Descending FlightAware ADS-B (CYVR)
Thu 01:11:39 AM 49.1759 -122.9461 280° West 170 196 2,500 -878 Descending FlightAware ADS-B (CYVR)
Thu 01:11:59 AM 49.1785 -122.9689 280° West 161 185 2,300 -769 Descending FlightAware ADS-B (CYVR)
Thu 01:12:18 AM 49.1810 -122.9906 280° West 161 185 2,000 -878 Descending FlightAware ADS-B (CYVR)
Thu 01:12:40 AM 49.1837 -123.0133 280° West 147 169 1,700 -750 Descending FlightAware ADS-B (CYVR)
Thu 01:12:58 AM 49.1857 -123.0316 280° West 144 166 1,500 -769 Descending FlightAware ADS-B (CYVR)
Thu 01:13:19 AM 49.1883 -123.0536 280° West 145 167 1,200 -698 Descending FlightAware ADS-B (CYVR)
Thu 01:13:41 AM 49.1908 -123.0753 280° West 148 170 1,000 -714 Descending FlightAware ADS-B (CYVR)
Thu 01:14:01 AM 49.1932 -123.0962 280° West 149 171 700 -769 Descending FlightAware ADS-B (CYVR)
Thu 01:14:20 AM 49.1955 -123.1166 280° West 149 171 500 -800 Descending FlightAware ADS-B (CYVR)
Thu 01:14:46 AM 49.1985 -123.1427 280° West 150 173 100 -923 Descending FlightAware ADS-B (CYVR)

Login

Don't have an account? Register now (free) for customized features, flight alerts, and more!